createdAt,value
2018-12-13T00:00:46.030Z,1.30
2018-12-13T00:03:13.519Z,1.30
2018-12-13T00:05:41.007Z,1.30
2018-12-13T00:08:08.522Z,1.30
2018-12-13T00:10:36.006Z,1.30
2018-12-13T00:13:03.515Z,1.30
2018-12-13T00:15:31.822Z,1.30
2018-12-13T00:17:59.335Z,1.30
2018-12-13T00:20:26.822Z,1.20
2018-12-13T00:22:54.343Z,1.20
2018-12-13T00:25:21.834Z,1.20
2018-12-13T00:27:49.350Z,1.20
2018-12-13T00:30:16.839Z,1.20
2018-12-13T00:32:44.350Z,1.20
2018-12-13T00:35:11.839Z,1.20
2018-12-13T00:37:39.527Z,1.20
2018-12-13T00:40:07.183Z,1.20
2018-12-13T00:42:34.787Z,1.20
2018-12-13T00:45:02.359Z,1.10
2018-12-13T00:47:29.875Z,1.10
2018-12-13T00:49:57.367Z,1.10
2018-12-13T00:52:24.887Z,1.00
2018-12-13T00:54:52.375Z,1.00
2018-12-13T00:57:19.899Z,1.00
2018-12-13T00:59:47.386Z,1.00
2018-12-13T01:02:14.986Z,1.00
2018-12-13T01:04:42.470Z,1.00
2018-12-13T01:07:09.987Z,1.00
2018-12-13T01:09:37.474Z,0.90
2018-12-13T01:12:04.991Z,0.90
2018-12-13T01:14:32.486Z,0.90
2018-12-13T01:17:00.007Z,0.80
2018-12-13T01:19:27.500Z,0.80
2018-12-13T01:21:55.023Z,0.80
2018-12-13T01:24:22.635Z,0.80
2018-12-13T01:26:50.154Z,0.70
2018-12-13T01:29:17.639Z,0.70
2018-12-13T01:31:45.171Z,0.70
2018-12-13T01:34:12.661Z,0.70
2018-12-13T01:36:40.150Z,0.70
2018-12-13T01:39:07.666Z,0.70
2018-12-13T01:41:35.151Z,0.70
2018-12-13T01:44:02.689Z,0.70
2018-12-13T01:46:30.186Z,0.60
2018-12-13T01:48:57.702Z,0.60
2018-12-13T01:51:25.190Z,0.60
2018-12-13T01:53:52.719Z,0.60
2018-12-13T01:56:20.211Z,0.60
2018-12-13T01:58:47.708Z,0.60
2018-12-13T02:01:15.232Z,0.60
2018-12-13T02:03:42.727Z,0.60
2018-12-13T02:06:10.251Z,0.60
2018-12-13T02:08:37.743Z,0.60
2018-12-13T02:11:05.231Z,0.60
2018-12-13T02:13:32.755Z,0.60
2018-12-13T02:16:00.288Z,0.50
2018-12-13T02:18:27.787Z,0.50
2018-12-13T02:20:55.284Z,0.50
2018-12-13T02:23:22.812Z,0.50
2018-12-13T02:25:50.467Z,0.50
2018-12-13T02:28:19.095Z,0.50
2018-12-13T02:30:46.596Z,0.50
2018-12-13T02:33:14.125Z,0.50
2018-12-13T02:35:41.631Z,0.40
2018-12-13T02:38:09.240Z,0.40
2018-12-13T02:40:36.812Z,0.40
2018-12-13T02:43:04.312Z,0.40
2018-12-13T02:45:31.831Z,0.40
2018-12-13T02:47:59.325Z,0.40
2018-12-13T02:50:26.847Z,0.40
2018-12-13T02:52:54.343Z,0.40
2018-12-13T02:55:21.868Z,0.30
2018-12-13T02:57:49.367Z,0.40
2018-12-13T03:00:16.899Z,0.30
2018-12-13T03:02:44.398Z,0.30
2018-12-13T03:05:11.984Z,0.30
2018-12-13T03:07:39.507Z,0.30
2018-12-13T03:10:07.082Z,0.30
2018-12-13T03:12:34.615Z,0.30
2018-12-13T03:15:02.111Z,0.20
2018-12-13T03:17:29.637Z,0.20
2018-12-13T03:19:57.132Z,0.20
2018-12-13T03:22:24.667Z,0.20
2018-12-13T03:24:52.159Z,0.20
2018-12-13T03:27:19.647Z,0.10
2018-12-13T03:29:47.174Z,0.10
2018-12-13T03:32:14.720Z,0.10
2018-12-13T03:34:42.322Z,0.10
2018-12-13T03:37:09.856Z,0.10
2018-12-13T03:39:37.352Z,0.00
2018-12-13T03:42:04.927Z,0.00
2018-12-13T03:44:32.454Z,0.00
2018-12-13T03:46:59.955Z,0.00
2018-12-13T03:49:27.561Z,0.00
2018-12-13T03:51:55.055Z,0.00
2018-12-13T03:54:22.572Z,0.00
2018-12-13T03:56:50.066Z,0.00
2018-12-13T03:59:17.591Z,0.00
2018-12-13T04:01:45.082Z,-0.10
2018-12-13T04:04:12.608Z,-0.10
2018-12-13T04:06:40.116Z,-0.10
2018-12-13T04:09:07.653Z,-0.10
2018-12-13T04:11:35.158Z,-0.10
2018-12-13T04:14:02.703Z,-0.10
2018-12-13T04:16:30.304Z,-0.10
2018-12-13T04:18:57.913Z,-0.10
2018-12-13T04:21:25.415Z,-0.10
2018-12-13T04:23:52.945Z,-0.10
2018-12-13T04:26:20.443Z,-0.20
2018-12-13T04:28:47.963Z,-0.20
2018-12-13T04:31:15.464Z,-0.20
2018-12-13T04:33:42.995Z,-0.20
2018-12-13T04:36:10.495Z,-0.20
2018-12-13T04:38:38.101Z,-0.20
2018-12-13T04:41:05.604Z,-0.20
2018-12-13T04:43:33.139Z,-0.20
2018-12-13T04:46:00.635Z,-0.20
2018-12-13T04:48:28.156Z,-0.20
2018-12-13T04:50:55.655Z,-0.20
2018-12-13T04:53:23.183Z,-0.20
2018-12-13T04:55:50.683Z,-0.20
2018-12-13T04:58:18.214Z,-0.30
2018-12-13T05:00:45.714Z,-0.20
2018-12-13T05:03:13.239Z,-0.30
2018-12-13T05:05:40.739Z,-0.30
2018-12-13T05:08:08.266Z,-0.30
2018-12-13T05:10:56.826Z,-0.30
2018-12-13T05:13:24.361Z,-0.30
2018-12-13T05:15:51.859Z,-0.30
2018-12-13T05:18:19.468Z,-0.30
2018-12-13T05:20:46.959Z,-0.30
2018-12-13T05:23:14.487Z,-0.30
2018-12-13T05:25:41.991Z,-0.40
2018-12-13T05:28:09.519Z,-0.30
2018-12-13T05:30:37.020Z,-0.40
2018-12-13T05:33:04.626Z,-0.40
2018-12-13T05:35:32.123Z,-0.40
2018-12-13T05:37:59.656Z,-0.40
2018-12-13T05:40:27.155Z,-0.40
2018-12-13T05:42:54.688Z,-0.40
2018-12-13T05:45:22.268Z,-0.50
2018-12-13T05:47:49.808Z,-0.50
2018-12-13T05:50:17.308Z,-0.50
2018-12-13T05:52:44.838Z,-0.50
2018-12-13T05:55:12.422Z,-0.50
2018-12-13T05:57:39.947Z,-0.50
2018-12-13T06:00:08.203Z,-0.50
2018-12-13T06:02:35.726Z,-0.50
2018-12-13T06:05:03.883Z,-0.60
2018-12-13T06:07:31.407Z,-0.60
2018-12-13T06:09:58.907Z,-0.60
2018-12-13T06:12:26.436Z,-0.60
2018-12-13T06:14:53.940Z,-0.60
2018-12-13T06:17:21.469Z,-0.60
2018-12-13T06:19:48.971Z,-0.60
2018-12-13T06:22:16.496Z,-0.60
2018-12-13T06:24:43.999Z,-0.70
2018-12-13T06:27:11.526Z,-0.70
2018-12-13T06:29:41.843Z,-0.60
2018-12-13T06:32:08.589Z,-0.70
2018-12-13T06:34:36.087Z,-0.70
2018-12-13T06:37:03.647Z,-0.70
2018-12-13T06:39:31.236Z,-0.70
2018-12-13T06:41:58.735Z,-0.70
2018-12-13T06:44:26.269Z,-0.70
2018-12-13T06:46:53.772Z,-0.70
2018-12-13T06:49:21.303Z,-0.70
2018-12-13T06:51:48.795Z,-0.80
2018-12-13T06:54:16.327Z,-0.80
2018-12-13T06:56:43.828Z,-0.80
2018-12-13T06:59:11.359Z,-0.80
2018-12-13T07:01:38.859Z,-0.80
2018-12-13T07:04:06.391Z,-0.80
2018-12-13T07:06:33.882Z,-0.80
2018-12-13T07:09:01.411Z,-0.80
2018-12-13T07:11:28.907Z,-0.90
2018-12-13T07:13:56.437Z,-0.90
2018-12-13T07:16:23.936Z,-0.80
2018-12-13T07:18:51.469Z,-0.80
2018-12-13T07:21:18.960Z,-0.80
2018-12-13T07:23:46.496Z,-0.80
2018-12-13T07:26:13.997Z,-0.80
2018-12-13T07:28:41.532Z,-0.80
2018-12-13T07:31:09.031Z,-0.80
2018-12-13T07:33:36.563Z,-0.80
2018-12-13T07:36:04.130Z,-0.80
2018-12-13T07:38:31.631Z,-0.70
2018-12-13T07:40:59.160Z,-0.70
2018-12-13T07:43:26.655Z,-0.70
2018-12-13T07:45:54.175Z,-0.70
2018-12-13T07:48:21.671Z,-0.70
2018-12-13T07:50:49.191Z,-0.70
2018-12-13T07:53:16.686Z,-0.60
2018-12-13T07:55:44.206Z,-0.60
2018-12-13T07:58:11.714Z,-0.50
2018-12-13T08:00:39.243Z,-0.50
2018-12-13T08:03:06.819Z,-0.50
2018-12-13T08:05:34.345Z,-0.50
2018-12-13T08:08:01.839Z,-0.40
2018-12-13T08:10:29.371Z,-0.40
2018-12-13T08:12:56.872Z,-0.40
2018-12-13T08:15:24.399Z,-0.30
2018-12-13T08:17:51.895Z,-0.20
2018-12-13T08:20:19.505Z,-0.10
2018-12-13T08:22:46.999Z,0.10
2018-12-13T08:25:14.519Z,0.30
2018-12-13T08:27:42.020Z,0.50
2018-12-13T08:30:09.704Z,0.90
2018-12-13T08:32:37.191Z,1.40
2018-12-13T08:35:05.163Z,1.80
2018-12-13T08:37:32.659Z,2.20
2018-12-13T08:40:00.148Z,2.50
2018-12-13T08:42:27.676Z,2.80
2018-12-13T08:44:55.176Z,3.10
2018-12-13T08:47:22.695Z,3.40
2018-12-13T08:49:50.187Z,3.70
2018-12-13T08:52:17.702Z,4.20
2018-12-13T08:54:45.199Z,4.90
2018-12-13T08:57:12.723Z,5.50
2018-12-13T08:59:40.219Z,6.40
2018-12-13T09:02:07.743Z,7.20
2018-12-13T09:04:35.231Z,7.90
2018-12-13T09:07:02.760Z,8.70
2018-12-13T09:09:30.260Z,9.20
2018-12-13T09:11:57.788Z,10.10
2018-12-13T09:14:25.317Z,10.50
2018-12-13T09:16:52.935Z,10.70
2018-12-13T09:19:20.439Z,11.40
2018-12-13T09:21:47.969Z,11.40
2018-12-13T09:24:15.472Z,11.30
2018-12-13T09:26:42.999Z,11.10
2018-12-13T09:29:10.499Z,11.10
2018-12-13T09:31:38.027Z,10.60
2018-12-13T09:34:05.531Z,11.20
2018-12-13T09:36:33.050Z,11.20
2018-12-13T09:39:00.551Z,11.10
2018-12-13T09:41:28.084Z,11.10
2018-12-13T09:43:55.583Z,11.20
2018-12-13T09:46:23.111Z,11.20
2018-12-13T09:48:50.616Z,11.50
2018-12-13T09:51:18.148Z,11.20
2018-12-13T09:53:45.647Z,11.40
2018-12-13T09:56:13.175Z,11.70
2018-12-13T09:58:40.674Z,11.70
2018-12-13T10:01:08.200Z,11.90
2018-12-13T10:03:35.779Z,12.10
2018-12-13T10:06:03.303Z,11.80
2018-12-13T10:08:30.807Z,12.10
2018-12-13T10:10:58.338Z,11.50
2018-12-13T10:13:25.831Z,11.20
2018-12-13T10:15:53.356Z,10.50
2018-12-13T10:18:20.862Z,10.20
2018-12-13T10:20:48.463Z,10.10
2018-12-13T10:23:15.991Z,10.30
2018-12-13T10:25:43.519Z,10.70
2018-12-13T10:28:11.056Z,11.30
2018-12-13T10:30:38.557Z,11.50
2018-12-13T10:33:06.164Z,11.70
2018-12-13T10:35:33.663Z,11.80
2018-12-13T10:38:01.194Z,11.70
2018-12-13T10:40:28.768Z,11.40
2018-12-13T10:42:56.295Z,11.10
2018-12-13T10:45:23.796Z,10.80
2018-12-13T10:47:51.327Z,10.60
2018-12-13T10:50:18.823Z,11.00
2018-12-13T10:52:46.352Z,10.50
2018-12-13T10:55:13.852Z,10.90
2018-12-13T10:57:41.392Z,10.70
2018-12-13T11:00:11.023Z,10.60
2018-12-13T11:02:52.590Z,10.70
2018-12-13T11:05:20.087Z,10.90
2018-12-13T11:07:47.620Z,10.90
2018-12-13T11:10:15.125Z,11.10
2018-12-13T11:12:42.651Z,11.20
2018-12-13T11:15:10.151Z,11.20
2018-12-13T11:17:37.680Z,11.10
2018-12-13T11:20:05.435Z,10.90
2018-12-13T11:22:32.963Z,11.00
2018-12-13T11:25:00.462Z,10.70
2018-12-13T11:30:30.618Z,10.20
2018-12-13T11:32:58.152Z,10.10
2018-12-13T11:35:25.647Z,10.20
2018-12-13T11:37:53.179Z,10.40
2018-12-13T11:40:20.683Z,10.40
2018-12-13T11:42:48.219Z,10.30
2018-12-13T11:45:15.732Z,10.40
2018-12-13T11:47:43.263Z,10.40
2018-12-13T11:50:10.771Z,10.40
2018-12-13T11:52:38.302Z,10.50
2018-12-13T11:55:17.915Z,10.40
2018-12-13T11:57:45.448Z,10.50
2018-12-13T12:00:13.023Z,10.70
2018-12-13T12:02:40.558Z,10.50
2018-12-13T12:05:08.062Z,10.70
2018-12-13T12:07:35.594Z,10.70
2018-12-13T12:10:03.181Z,10.50
2018-12-13T12:12:30.724Z,10.60
2018-12-13T12:14:58.228Z,10.80
2018-12-13T12:17:25.759Z,11.30
2018-12-13T12:19:53.342Z,11.40
2018-12-13T12:22:20.948Z,11.70
2018-12-13T12:24:48.465Z,11.20
2018-12-13T12:27:15.999Z,11.40
2018-12-13T12:29:43.503Z,11.50
2018-12-13T12:32:11.038Z,11.70
2018-12-13T12:34:38.539Z,11.50
2018-12-13T12:37:06.071Z,11.10
2018-12-13T12:39:33.580Z,11.20
2018-12-13T12:42:02.062Z,10.90
2018-12-13T12:44:35.092Z,10.40
2018-12-13T12:47:02.879Z,9.70
2018-12-13T12:49:30.375Z,9.20
2018-12-13T12:51:57.881Z,8.80
2018-12-13T12:54:25.413Z,8.30
2018-12-13T12:56:52.918Z,7.80
2018-12-13T12:59:20.447Z,7.40
2018-12-13T13:01:47.949Z,7.00
2018-12-13T13:04:15.480Z,6.70
2018-12-13T13:06:42.983Z,6.40
2018-12-13T13:09:10.587Z,6.00
2018-12-13T13:11:38.087Z,5.90
2018-12-13T13:14:05.611Z,5.70
2018-12-13T13:16:33.120Z,5.50
2018-12-13T13:19:00.648Z,5.40
2018-12-13T13:21:28.147Z,5.40
2018-12-13T13:23:55.673Z,5.30
2018-12-13T13:26:23.243Z,5.20
2018-12-13T13:28:50.851Z,5.10
2018-12-13T13:31:18.348Z,5.00
2018-12-13T13:33:45.879Z,4.90
2018-12-13T13:36:13.376Z,4.80
2018-12-13T13:38:40.898Z,4.70
2018-12-13T13:41:08.394Z,4.70
2018-12-13T13:43:35.925Z,4.70
2018-12-13T13:46:03.433Z,4.70
2018-12-13T13:48:30.963Z,4.50
2018-12-13T13:50:58.460Z,4.50
2018-12-13T13:53:25.984Z,4.40
2018-12-13T13:55:53.487Z,4.30
2018-12-13T13:58:21.037Z,4.40
2018-12-13T14:00:48.535Z,4.30
2018-12-13T14:03:16.035Z,4.20
2018-12-13T14:05:43.559Z,4.00
2018-12-13T14:08:11.060Z,4.00
2018-12-13T14:10:38.587Z,3.90
2018-12-13T14:13:06.091Z,3.80
2018-12-13T14:15:33.620Z,3.70
2018-12-13T14:18:01.125Z,3.70
2018-12-13T14:20:28.925Z,3.60
2018-12-13T14:22:56.708Z,3.70
2018-12-13T14:25:24.239Z,3.60
2018-12-13T14:27:51.748Z,3.60
2018-12-13T14:30:19.288Z,3.60
2018-12-13T14:32:46.787Z,3.50
2018-12-13T14:35:14.315Z,3.50
2018-12-13T14:37:41.826Z,3.50
2018-12-13T14:40:09.432Z,3.50
2018-12-13T14:42:36.936Z,3.40
2018-12-13T14:45:05.219Z,3.30
2018-12-13T14:47:32.786Z,3.30
2018-12-13T14:50:00.325Z,3.30
2018-12-13T14:52:27.823Z,3.20
2018-12-13T14:54:55.356Z,3.20
2018-12-13T14:57:22.860Z,3.10
2018-12-13T14:59:50.389Z,3.10
2018-12-13T15:02:17.977Z,3.10
2018-12-13T15:04:45.509Z,3.00
2018-12-13T15:07:13.398Z,3.00
2018-12-13T15:09:40.933Z,2.90
2018-12-13T15:12:08.431Z,2.90
2018-12-13T15:14:35.969Z,2.90
2018-12-13T15:17:03.471Z,2.70
2018-12-13T15:19:30.968Z,2.70
2018-12-13T15:21:58.503Z,2.70
2018-12-13T15:24:26.008Z,2.70
2018-12-13T15:26:53.550Z,2.70
2018-12-13T15:29:21.056Z,2.80
2018-12-13T15:31:48.578Z,2.80
2018-12-13T15:34:16.090Z,2.80
2018-12-13T15:36:43.633Z,2.80
2018-12-13T15:39:11.150Z,2.70
2018-12-13T15:41:38.700Z,2.70
2018-12-13T15:44:06.199Z,2.70
2018-12-13T15:46:33.725Z,2.70
2018-12-13T15:49:01.222Z,2.70
2018-12-13T15:51:28.743Z,2.70
2018-12-13T15:53:56.248Z,2.70
2018-12-13T15:56:23.776Z,2.70
2018-12-13T15:58:51.284Z,2.70
2018-12-13T16:01:18.823Z,2.70
2018-12-13T16:03:46.322Z,2.60
2018-12-13T16:06:13.853Z,2.60
2018-12-13T16:08:41.346Z,2.60
2018-12-13T16:11:08.873Z,2.50
2018-12-13T16:13:36.377Z,2.50
2018-12-13T16:16:03.918Z,2.50
2018-12-13T16:18:31.524Z,2.40
2018-12-13T16:20:59.127Z,2.40
2018-12-13T16:23:26.628Z,2.40
2018-12-13T16:25:54.171Z,2.40
2018-12-13T16:28:21.671Z,2.40
2018-12-13T16:30:49.194Z,2.40
2018-12-13T16:33:16.695Z,2.40
2018-12-13T16:35:44.225Z,2.40
2018-12-13T16:38:11.724Z,2.40
2018-12-13T16:40:39.254Z,2.30
2018-12-13T16:43:06.848Z,2.30
2018-12-13T16:45:34.375Z,2.20
2018-12-13T16:48:01.867Z,2.20
2018-12-13T16:50:29.395Z,2.20
2018-12-13T16:52:56.891Z,2.20
2018-12-13T16:55:24.419Z,2.20
2018-12-13T16:57:51.915Z,2.20
2018-12-13T17:00:19.539Z,2.10
2018-12-13T17:02:47.032Z,2.10
2018-12-13T17:05:14.572Z,2.10
2018-12-13T17:07:42.082Z,2.10
2018-12-13T17:10:09.701Z,2.00
2018-12-13T17:12:37.204Z,2.00
2018-12-13T17:15:05.295Z,2.00
2018-12-13T17:17:32.794Z,2.00
2018-12-13T17:20:00.335Z,2.00
2018-12-13T17:22:27.840Z,2.00
2018-12-13T17:24:55.368Z,2.00
2018-12-13T17:27:22.980Z,2.10
2018-12-13T17:29:50.474Z,2.10
2018-12-13T17:32:18.003Z,2.00
2018-12-13T17:34:45.503Z,2.00
2018-12-13T17:37:13.031Z,2.10
2018-12-13T17:39:40.531Z,2.10
2018-12-13T17:42:08.060Z,2.00
2018-12-13T17:44:35.559Z,2.00
2018-12-13T17:47:03.092Z,2.00
2018-12-13T17:49:30.587Z,2.00
2018-12-13T17:51:58.120Z,2.00
2018-12-13T17:54:25.619Z,2.00
2018-12-13T17:56:53.143Z,2.00
2018-12-13T17:59:20.639Z,2.00
2018-12-13T18:01:48.171Z,2.00
2018-12-13T18:04:15.672Z,2.00
2018-12-13T18:06:43.180Z,2.00
2018-12-13T18:09:10.764Z,2.00
2018-12-13T18:11:38.272Z,2.00
2018-12-13T18:14:05.803Z,1.90
2018-12-13T18:16:33.303Z,1.90
2018-12-13T18:19:00.845Z,1.90
2018-12-13T18:21:28.338Z,1.90
2018-12-13T18:23:55.869Z,1.90
2018-12-13T18:26:23.368Z,2.00
2018-12-13T18:28:50.891Z,2.10
2018-12-13T18:31:18.391Z,2.10
2018-12-13T18:33:45.920Z,2.10
2018-12-13T18:36:13.423Z,2.00
2018-12-13T18:38:40.948Z,2.00
2018-12-13T18:41:08.451Z,2.00
2018-12-13T18:43:35.984Z,2.10
2018-12-13T18:46:03.479Z,2.00
2018-12-13T18:48:31.016Z,2.10
2018-12-13T18:50:58.517Z,2.00
2018-12-13T18:53:26.073Z,1.90
2018-12-13T18:55:53.567Z,1.80
2018-12-13T18:58:21.100Z,1.80
2018-12-13T19:00:48.608Z,1.80
2018-12-13T19:03:16.140Z,1.90
2018-12-13T19:05:43.639Z,1.90
2018-12-13T19:08:11.138Z,1.90
2018-12-13T19:10:41.853Z,1.90
2018-12-13T19:13:08.187Z,1.90
2018-12-13T19:15:35.714Z,1.90
2018-12-13T19:18:03.214Z,1.90
2018-12-13T19:20:30.738Z,1.90
2018-12-13T19:22:58.237Z,1.90
2018-12-13T19:25:25.767Z,1.90
2018-12-13T19:27:53.269Z,1.90
2018-12-13T19:30:20.803Z,1.90
2018-12-13T19:32:48.308Z,2.00
2018-12-13T19:35:19.345Z,1.90
2018-12-13T19:37:45.359Z,1.90
2018-12-13T19:40:12.981Z,2.00
2018-12-13T19:42:40.515Z,2.00
2018-12-13T19:45:08.177Z,2.00
2018-12-13T19:47:35.702Z,2.00
2018-12-13T19:50:03.565Z,1.90
2018-12-13T19:52:31.096Z,1.90
2018-12-13T19:54:58.595Z,2.00
2018-12-13T19:57:26.119Z,1.90
2018-12-13T19:59:53.615Z,1.90
2018-12-13T20:02:21.158Z,1.80
2018-12-13T20:04:48.660Z,1.80
2018-12-13T20:07:16.156Z,1.80
2018-12-13T20:09:43.698Z,1.80
2018-12-13T20:12:11.201Z,1.80
2018-12-13T20:14:38.731Z,1.90
2018-12-13T20:17:06.307Z,1.90
2018-12-13T20:19:33.843Z,1.90
2018-12-13T20:22:01.343Z,1.90
2018-12-13T20:24:28.867Z,1.90
2018-12-13T20:26:56.362Z,1.80
2018-12-13T20:29:23.967Z,1.70
2018-12-13T20:31:51.467Z,1.80
2018-12-13T20:34:19.003Z,1.80
2018-12-13T20:36:46.498Z,1.80
2018-12-13T20:39:14.035Z,1.80
2018-12-13T20:41:41.531Z,1.80
2018-12-13T20:44:09.027Z,1.80
2018-12-13T20:46:36.564Z,1.80
2018-12-13T20:49:04.139Z,1.80
2018-12-13T20:51:31.667Z,1.80
2018-12-13T20:53:59.163Z,1.80
2018-12-13T20:56:26.691Z,1.80
2018-12-13T20:58:54.195Z,1.70
2018-12-13T21:01:21.731Z,1.80
2018-12-13T21:03:49.232Z,1.80
2018-12-13T21:06:16.769Z,1.80
2018-12-13T21:08:44.272Z,1.80
2018-12-13T21:11:11.807Z,1.80
2018-12-13T21:13:39.308Z,1.80
2018-12-13T21:16:06.840Z,1.80
2018-12-13T21:18:34.345Z,1.80
2018-12-13T21:21:01.866Z,1.80
2018-12-13T21:23:29.368Z,1.80
2018-12-13T21:25:56.908Z,1.80
2018-12-13T21:28:24.487Z,1.70
2018-12-13T21:30:51.989Z,1.70
2018-12-13T21:33:19.520Z,1.70
2018-12-13T21:35:47.024Z,1.70
2018-12-13T21:38:14.559Z,1.70
2018-12-13T21:40:42.064Z,1.70
2018-12-13T21:43:09.589Z,1.70
2018-12-13T21:45:37.099Z,1.70
2018-12-13T21:48:04.630Z,1.70
2018-12-13T21:50:32.126Z,1.70
2018-12-13T21:52:59.619Z,1.70
2018-12-13T21:55:27.157Z,1.70
2018-12-13T21:57:54.663Z,1.70
2018-12-13T22:00:22.195Z,1.70
2018-12-13T22:02:49.691Z,1.70
2018-12-13T22:05:17.225Z,1.60
2018-12-13T22:07:44.736Z,1.70
2018-12-13T22:10:12.259Z,1.70
2018-12-13T22:12:39.758Z,1.70
2018-12-13T22:15:09.424Z,1.70
2018-12-13T22:17:36.922Z,1.70
2018-12-13T22:20:06.108Z,1.80
2018-12-13T22:22:33.609Z,1.70
2018-12-13T22:25:01.137Z,1.70
2018-12-13T22:27:28.640Z,1.70
2018-12-13T22:29:56.167Z,1.70
2018-12-13T22:32:23.665Z,1.70
2018-12-13T22:34:51.195Z,1.70
2018-12-13T22:37:18.691Z,1.60
2018-12-13T22:39:46.224Z,1.70
2018-12-13T22:42:13.722Z,1.70
2018-12-13T22:44:41.246Z,1.70
2018-12-13T22:47:08.747Z,1.70
2018-12-13T22:49:36.275Z,1.70
2018-12-13T22:52:03.864Z,1.60
2018-12-13T22:54:31.390Z,1.60
2018-12-13T22:56:58.886Z,1.60
2018-12-13T22:59:26.414Z,1.70
2018-12-13T23:01:53.907Z,1.60
2018-12-13T23:04:21.433Z,1.60
2018-12-13T23:06:48.946Z,1.60
2018-12-13T23:09:16.477Z,1.60
2018-12-13T23:11:43.970Z,1.60
2018-12-13T23:14:11.506Z,1.60
2018-12-13T23:16:39.085Z,1.60
2018-12-13T23:19:06.610Z,1.70
2018-12-13T23:21:34.115Z,1.60
2018-12-13T23:24:01.642Z,1.60
2018-12-13T23:26:29.138Z,1.60
2018-12-13T23:28:56.667Z,1.60
2018-12-13T23:31:24.164Z,1.50
2018-12-13T23:33:51.691Z,1.60
2018-12-13T23:36:19.196Z,1.50
2018-12-13T23:38:46.729Z,1.60
2018-12-13T23:41:14.237Z,1.50
2018-12-13T23:43:41.771Z,1.60
2018-12-13T23:46:09.361Z,1.60
2018-12-13T23:48:36.863Z,1.60
2018-12-13T23:51:04.397Z,1.60
2018-12-13T23:53:32.174Z,1.60
2018-12-13T23:56:00.008Z,1.60
2018-12-13T23:58:27.585Z,1.60
